Time;durP1;ratioP1;P1;durP2;ratioP2;P2;SDS_P1;SDS_P2;PMS_P1;PMS_P2;Temp;Humidity;BMP_temperature;BMP_pressure;BME280_temperature;BME280_humidity;BME280_pressure;Samples;Min_cycle;Max_cycle;Signal;HPM_P1;HPM_P2
2022/09/09 00:01:39;;;;;;;9.07;7.40;;;;;;;19.75;90.06;94632.19;5014333;28;20228;-64
2022/09/09 00:04:17;;;;;;;7.65;6.40;;;;;;;19.78;89.63;94646.47;4951772;29;20224;-63
2022/09/09 00:06:50;;;;;;;8.45;7.18;;;;;;;19.73;88.97;94644.47;4935831;29;20730;-64
2022/09/09 00:09:21;;;;;;;10.23;7.43;;;;;;;19.65;89.77;94636.84;4982544;28;20222;-63
2022/09/09 00:12:03;;;;;;;11.70;7.50;;;;;;;19.50;91.56;94636.09;5031994;28;20183;-62
2022/09/09 00:14:41;;;;;;;7.90;6.90;;;;;;;19.51;92.08;94634.34;5014160;28;20766;-62
2022/09/09 00:17:43;;;;;;;8.68;6.97;;;;;;;19.73;90.79;94659.94;5031863;28;20271;-63
2022/09/09 00:20:13;;;;;;;8.07;6.82;;;;;;;19.69;90.88;94653.56;5026519;28;20221;-63
2022/09/09 00:22:45;;;;;;;10.65;6.65;;;;;;;19.72;91.10;94654.94;5013956;28;20194;-62
2022/09/09 00:25:29;;;;;;;8.32;6.85;;;;;;;19.59;91.95;94635.00;5031606;28;20213;-60
2022/09/09 00:27:56;;;;;;;9.18;7.13;;;;;;;19.59;92.72;94636.78;5013804;28;20197;-64
2022/09/09 00:30:27;;;;;;;8.18;7.13;;;;;;;19.49;93.02;94624.22;5031995;28;20213;-61
2022/09/09 00:33:05;;;;;;;10.23;8.02;;;;;;;19.47;92.82;94633.91;5031553;28;20197;-60
2022/09/09 00:35:36;;;;;;;9.23;7.70;;;;;;;19.44;92.34;94633.47;5031650;28;20202;-60
2022/09/09 00:38:24;;;;;;;8.32;6.97;;;;;;;19.37;92.92;94623.09;5031428;28;20193;-61
2022/09/09 00:41:01;;;;;;;8.88;7.55;;;;;;;19.30;93.27;94624.78;5031715;28;20190;-60
2022/09/09 00:43:33;;;;;;;11.27;6.80;;;;;;;19.21;93.26;94624.09;5030501;28;20193;-60
2022/09/09 00:46:32;;;;;;;8.10;6.22;;;;;;;19.03;94.07;94602.28;5038695;22;20230;-60
2022/09/09 00:49:25;;;;;;;8.05;6.45;;;;;;;18.98;94.05;94597.69;5031299;28;20209;-62
2022/09/09 00:52:18;;;;;;;9.65;6.50;;;;;;;18.95;94.10;94617.84;5031504;28;20185;-61
2022/09/09 00:55:02;;;;;;;7.80;6.05;;;;;;;18.78;94.74;94606.16;5031555;28;20285;-60
2022/09/09 00:57:35;;;;;;;7.07;6.38;;;;;;;18.85;93.60;94627.63;5031222;28;20244;-61
2022/09/09 01:00:36;;;;;;;8.10;7.28;;;;;;;18.76;94.39;94623.59;5031694;28;20210;-61
2022/09/09 01:03:29;;;;;;;11.32;6.30;;;;;;;18.71;95.37;94610.44;5031119;28;20235;-62
2022/09/09 01:06:12;;;;;;;8.82;6.15;;;;;;;18.79;94.11;94624.00;5031242;28;20190;-61
2022/09/09 01:08:58;;;;;;;6.97;6.25;;;;;;;18.76;94.57;94623.59;5031084;28;20210;-61
2022/09/09 01:11:31;;;;;;;6.63;5.93;;;;;;;18.76;94.32;94626.16;5031050;28;20185;-61
2022/09/09 01:14:19;;;;;;;8.18;6.65;;;;;;;18.68;94.32;94621.09;5031092;28;20240;-61
2022/09/09 01:16:45;;;;;;;7.15;6.47;;;;;;;18.74;94.17;94628.94;5020807;22;20320;-62
2022/09/09 01:19:23;;;;;;;9.70;6.65;;;;;;;18.76;93.79;94642.44;5030845;28;20206;-61
2022/09/09 01:22:01;;;;;;;7.50;6.63;;;;;;;18.70;94.44;94624.31;5031156;28;20190;-61
2022/09/09 01:24:52;;;;;;;7.25;6.47;;;;;;;18.75;93.92;94640.00;5038692;22;20218;-62
2022/09/09 01:27:20;;;;;;;7.70;5.93;;;;;;;18.75;94.26;94632.28;5030915;28;20269;-63
2022/09/09 01:29:46;;;;;;;7.18;6.50;;;;;;;18.83;93.24;94648.44;5030720;28;20203;-62
2022/09/09 01:32:42;;;;;;;12.75;6.97;;;;;;;18.69;95.13;94617.53;5030793;28;20200;-60
2022/09/09 01:35:30;;;;;;;8.57;6.68;;;;;;;18.56;96.69;94607.09;5012986;28;20635;-64
2022/09/09 01:37:56;;;;;;;7.43;6.63;;;;;;;18.58;96.01;94620.59;5030783;28;20182;-63
2022/09/09 01:40:22;;;;;;;7.18;6.47;;;;;;;18.71;94.34;94651.63;5030845;28;20374;-62
2022/09/09 01:42:48;;;;;;;11.27;7.43;;;;;;;18.68;95.08;94645.09;5030540;28;20633;-61
2022/09/09 01:45:13;;;;;;;7.40;6.55;;;;;;;18.56;94.89;94654.25;5030570;28;20735;-62
2022/09/09 01:47:39;;;;;;;7.03;6.32;;;;;;;18.64;96.21;94635.31;5030538;28;20186;-62
2022/09/09 01:50:07;;;;;;;10.93;6.57;;;;;;;18.69;94.63;94654.41;5030327;28;20244;-62
2022/09/09 01:52:36;;;;;;;8.50;6.50;;;;;;;18.85;93.49;94674.00;5012783;28;20657;-61
2022/09/09 01:55:01;;;;;;;9.05;6.50;;;;;;;18.92;92.83;94680.06;5032207;28;20761;-62
2022/09/09 01:57:49;;;;;;;9.07;6.85;;;;;;;18.74;94.59;94661.59;5016323;28;20194;-62
2022/09/09 02:00:16;;;;;;;7.55;6.43;;;;;;;18.84;95.36;94656.97;5033445;28;20225;-62
2022/09/09 02:03:01;;;;;;;6.57;5.90;;;;;;;18.86;94.50;94665.31;5033873;28;20213;-62
2022/09/09 02:05:48;;;;;;;8.00;6.63;;;;;;;18.77;94.81;94662.03;5034138;28;20273;-61
2022/09/09 02:08:34;;;;;;;10.57;7.47;;;;;;;18.87;94.93;94659.16;5033823;28;20289;-61
2022/09/09 02:11:13;;;;;;;7.03;6.22;;;;;;;18.88;93.34;94673.66;5033977;28;20573;-61
2022/09/09 02:13:42;;;;;;;8.50;6.40;;;;;;;18.92;93.17;94674.91;5033877;28;20301;-62
2022/09/09 02:16:34;;;;;;;7.88;7.03;;;;;;;18.93;94.81;94659.25;5033653;28;20186;-60
2022/09/09 02:19:15;;;;;;;8.10;6.53;;;;;;;19.01;91.97;94695.22;5033925;28;20221;-59
2022/09/09 02:21:43;;;;;;;7.05;6.35;;;;;;;18.85;92.20;94668.84;5015768;28;20189;-60
2022/09/09 02:24:14;;;;;;;7.28;6.32;;;;;;;18.72;93.43;94646.34;5041291;22;20723;-60
2022/09/09 02:26:43;;;;;;;8.35;6.70;;;;;;;18.56;95.42;94613.06;5033434;28;20707;-60
2022/09/09 02:29:17;;;;;;;7.82;6.28;;;;;;;18.58;94.77;94633.47;5007892;28;20712;-64
2022/09/09 02:31:46;;;;;;;9.30;6.32;;;;;;;18.47;95.37;94629.56;5014728;28;20187;-62
2022/09/09 02:34:13;;;;;;;7.07;6.20;;;;;;;18.56;94.31;94654.25;5014228;28;20712;-63
2022/09/09 02:36:41;;;;;;;10.32;6.82;;;;;;;18.49;93.85;94652.53;5014105;28;20187;-61
2022/09/09 02:39:09;;;;;;;10.85;6.22;;;;;;;18.38;94.97;94638.34;4996605;28;20221;-62
2022/09/09 02:41:40;;;;;;;17.65;6.82;;;;;;;18.34;95.25;94642.22;5014596;28;20195;-62
2022/09/09 02:44:17;;;;;;;7.15;6.47;;;;;;;18.31;96.31;94632.28;4996450;28;20249;-60
2022/09/09 02:47:00;;;;;;;9.15;6.55;;;;;;;18.37;96.56;94631.56;5013639;28;20664;-61
2022/09/09 02:49:41;;;;;;;10.02;6.68;;;;;;;18.43;97.59;94631.69;5013593;28;20225;-60
2022/09/09 02:52:11;;;;;;;8.50;6.65;;;;;;;18.30;97.61;94639.19;5013374;28;20194;-60
2022/09/09 02:54:38;;;;;;;7.93;6.88;;;;;;;18.20;99.39;94627.59;5013366;28;20234;-59
2022/09/09 02:57:27;;;;;;;10.27;7.38;;;;;;;17.97;100.00;94625.06;5013468;28;20190;-60
2022/09/09 02:59:53;;;;;;;12.50;7.85;;;;;;;17.97;100.00;94627.63;5013880;28;20211;-59
2022/09/09 03:02:18;;;;;;;10.07;7.85;;;;;;;17.83;100.00;94630.19;5013343;28;20577;-63
2022/09/09 03:04:50;;;;;;;12.02;7.78;;;;;;;17.85;100.00;94628.22;4995654;28;20692;-63
2022/09/09 03:07:16;;;;;;;8.20;7.38;;;;;;;18.04;100.00;94638.81;4995782;28;20282;-62
2022/09/09 03:09:42;;;;;;;10.27;7.50;;;;;;;17.98;100.00;94638.72;5013191;28;20215;-62
2022/09/09 03:12:08;;;;;;;10.82;8.63;;;;;;;17.84;100.00;94642.06;4995623;28;20242;-63
2022/09/09 03:14:33;;;;;;;14.30;9.23;;;;;;;17.75;100.00;94641.34;5013176;28;20210;-62
2022/09/09 03:17:00;;;;;;;14.70;8.70;;;;;;;17.78;100.00;94645.31;5013098;28;20676;-63
2022/09/09 03:19:27;;;;;;;9.80;8.40;;;;;;;17.90;100.00;94651.63;5013242;28;20253;-64
2022/09/09 03:21:53;;;;;;;12.45;8.95;;;;;;;17.74;100.00;94655.16;5013711;28;20249;-62
2022/09/09 03:24:19;;;;;;;12.52;10.00;;;;;;;17.78;100.00;94642.75;5013308;28;20249;-61
2022/09/09 03:26:45;;;;;;;13.70;9.40;;;;;;;17.83;100.00;94646.41;5003289;23;20250;-61
2022/09/09 03:29:15;;;;;;;12.35;8.30;;;;;;;17.90;100.00;94644.72;5011953;28;20229;-63
2022/09/09 03:31:42;;;;;;;13.43;9.85;;;;;;;17.85;100.00;94652.19;5013197;28;20218;-62
2022/09/09 03:34:08;;;;;;;11.10;9.35;;;;;;;17.98;100.00;94643.84;5013502;28;20242;-60
2022/09/09 03:36:33;;;;;;;12.85;9.82;;;;;;;17.80;100.00;94651.91;5013204;28;20522;-62
2022/09/09 03:39:00;;;;;;;12.38;9.07;;;;;;;17.79;100.00;94658.03;5013621;28;20238;-60
2022/09/09 03:41:26;;;;;;;10.63;9.02;;;;;;;17.87;100.00;94657.16;5013184;28;20273;-61
2022/09/09 03:43:51;;;;;;;15.40;9.52;;;;;;;17.83;100.00;94658.47;5012693;28;20294;-62
2022/09/09 03:46:26;;;;;;;14.93;9.85;;;;;;;17.93;100.00;94657.25;5012613;28;20199;-62
2022/09/09 03:48:52;;;;;;;14.60;9.85;;;;;;;17.97;100.00;94653.38;5012827;28;20313;-61
2022/09/09 03:51:18;;;;;;;11.50;9.23;;;;;;;18.28;100.00;94672.03;5013264;28;20281;-63
2022/09/09 03:53:44;;;;;;;9.65;8.48;;;;;;;18.18;100.00;94666.34;5012725;28;20233;-62
2022/09/09 03:56:15;;;;;;;11.43;9.07;;;;;;;18.11;100.00;94655.16;5013380;28;20191;-61
2022/09/09 03:58:44;;;;;;;12.82;9.35;;;;;;;18.13;100.00;94673.00;5013156;28;20198;-60
2022/09/09 04:01:17;;;;;;;13.00;9.57;;;;;;;18.02;100.00;94657.97;5012874;28;20517;-62
2022/09/09 04:03:44;;;;;;;11.38;9.15;;;;;;;18.08;100.00;94670.16;5013150;28;20211;-61
2022/09/09 04:06:13;;;;;;;11.75;9.65;;;;;;;17.92;100.00;94668.50;5012335;28;20233;-61
2022/09/09 04:08:39;;;;;;;11.13;9.85;;;;;;;17.97;100.00;94673.13;5011104;28;20215;-62
2022/09/09 04:11:06;;;;;;;11.63;9.05;;;;;;;18.06;100.00;94675.47;5012227;28;20235;-62
2022/09/09 04:13:37;;;;;;;13.13;9.05;;;;;;;18.14;100.00;94682.31;5012655;28;20203;-62
2022/09/09 04:16:03;;;;;;;13.82;9.73;;;;;;;18.17;100.00;94681.97;5012048;28;20194;-61
2022/09/09 04:18:29;;;;;;;13.10;9.80;;;;;;;18.42;100.00;94694.41;5011157;28;20194;-61
2022/09/09 04:20:58;;;;;;;10.75;9.73;;;;;;;18.39;100.00;94681.09;5012076;28;20282;-62
2022/09/09 04:23:31;;;;;;;13.98;9.65;;;;;;;18.16;100.00;94664.94;5011949;28;20187;-61
2022/09/09 04:25:58;;;;;;;12.32;9.50;;;;;;;18.32;100.00;94681.00;5011855;28;20202;-62
2022/09/09 04:28:26;;;;;;;14.88;10.73;;;;;;;18.37;100.00;94686.44;5011635;28;20191;-62
2022/09/09 04:30:52;;;;;;;16.00;9.65;;;;;;;18.30;100.00;94684.75;5011873;28;20194;-61
2022/09/09 04:33:18;;;;;;;19.50;11.30;;;;;;;18.28;100.00;94679.75;5011920;28;20190;-61
2022/09/09 04:35:48;;;;;;;15.80;10.63;;;;;;;18.25;100.00;94680.13;5011787;28;20190;-60
2022/09/09 04:38:14;;;;;;;12.27;10.55;;;;;;;18.30;100.00;94682.16;5011752;28;20182;-61
2022/09/09 04:40:46;;;;;;;15.00;10.25;;;;;;;18.12;100.00;94669.63;5011703;28;20201;-62
2022/09/09 04:43:14;;;;;;;15.25;10.13;;;;;;;18.11;100.00;94675.75;5011626;28;20190;-61
2022/09/09 04:45:40;;;;;;;15.00;10.40;;;;;;;18.07;100.00;94673.69;5011811;28;20207;-63
2022/09/09 04:48:06;;;;;;;15.10;10.43;;;;;;;18.19;100.00;94693.69;5010326;28;20232;-63
2022/09/09 04:50:32;;;;;;;14.48;10.32;;;;;;;18.18;100.00;94704.94;5010063;28;20231;-63
2022/09/09 04:53:02;;;;;;;14.65;9.93;;;;;;;18.18;100.00;94712.66;5012243;28;20185;-62
2022/09/09 04:55:27;;;;;;;11.60;8.88;;;;;;;18.09;100.00;94706.00;5011668;28;20226;-61
2022/09/09 04:57:53;;;;;;;13.20;8.75;;;;;;;18.01;100.00;94693.22;5011914;28;20735;-61
2022/09/09 05:00:19;;;;;;;10.57;7.63;;;;;;;17.85;100.00;94695.09;5011257;28;20601;-61
2022/09/09 05:02:44;;;;;;;11.48;8.15;;;;;;;17.78;100.00;94669.28;5011388;28;20573;-62
2022/09/09 05:05:11;;;;;;;11.65;7.32;;;;;;;17.86;100.00;94679.50;5011269;28;20222;-62
2022/09/09 05:07:36;;;;;;;8.98;7.45;;;;;;;17.91;100.00;94690.06;5011267;28;20190;-60
2022/09/09 05:10:04;;;;;;;7.50;6.80;;;;;;;18.00;100.00;94689.03;5011127;28;20214;-62
2022/09/09 05:12:31;;;;;;;12.15;8.43;;;;;;;18.16;100.00;94693.25;5011169;28;20230;-61
2022/09/09 05:14:56;;;;;;;8.68;7.57;;;;;;;18.13;100.00;94671.22;5010293;28;20289;-61
2022/09/09 05:17:22;;;;;;;9.98;8.23;;;;;;;18.15;100.00;94677.00;5009913;28;20301;-60
2022/09/09 05:19:47;;;;;;;8.13;7.25;;;;;;;18.26;100.00;94686.84;5011526;28;20242;-63
2022/09/09 05:22:17;;;;;;;11.48;7.28;;;;;;;18.23;100.00;94720.69;5011217;28;20283;-60
2022/09/09 05:24:44;;;;;;;8.63;7.22;;;;;;;18.30;100.00;94713.84;5011298;28;20301;-63
2022/09/09 05:27:11;;;;;;;10.23;7.38;;;;;;;18.41;99.28;94710.03;5011252;28;20207;-61
2022/09/09 05:29:37;;;;;;;8.85;7.72;;;;;;;18.38;99.77;94700.88;5012679;28;20684;-60
2022/09/09 05:32:04;;;;;;;8.27;6.57;;;;;;;18.41;100.00;94692.81;5014642;28;20187;-62
2022/09/09 05:34:29;;;;;;;10.40;6.43;;;;;;;18.61;98.27;94728.38;5014976;28;20612;-62
2022/09/09 05:36:55;;;;;;;12.15;7.00;;;;;;;18.73;97.49;94722.63;5013312;28;20197;-62
2022/09/09 05:39:21;;;;;;;8.10;7.07;;;;;;;18.80;97.89;94718.38;5013133;28;20289;-61
2022/09/09 05:41:46;;;;;;;10.18;7.35;;;;;;;18.72;97.73;94715.06;5014379;28;20191;-62
2022/09/09 05:44:13;;;;;;;9.10;7.07;;;;;;;18.88;97.28;94722.63;5013225;28;20219;-62
2022/09/09 05:46:38;;;;;;;8.65;6.75;;;;;;;18.97;96.67;94727.50;5014514;28;20194;-63
2022/09/09 05:49:05;;;;;;;10.65;6.50;;;;;;;19.21;93.92;94762.47;5013299;28;20683;-62
2022/09/09 05:51:31;;;;;;;9.77;6.93;;;;;;;19.11;93.36;94767.91;5014421;28;20183;-61
2022/09/09 05:54:00;;;;;;;7.60;6.82;;;;;;;19.19;92.99;94769.59;5013995;28;20696;-62
2022/09/09 05:56:28;;;;;;;9.48;7.05;;;;;;;19.18;91.64;94775.75;5013968;28;20187;-62
2022/09/09 05:58:55;;;;;;;7.30;6.35;;;;;;;19.19;90.08;94787.63;5014313;28;20222;-62
2022/09/09 06:01:29;;;;;;;7.70;6.85;;;;;;;19.19;89.54;94797.94;5012696;28;20195;-62
2022/09/09 06:03:54;;;;;;;10.48;7.20;;;;;;;19.31;89.11;94798.31;5014405;28;20210;-62
2022/09/09 06:06:30;;;;;;;9.93;6.90;;;;;;;19.33;89.25;94792.03;5014054;28;20201;-60
2022/09/09 06:08:57;;;;;;;11.85;7.40;;;;;;;19.36;89.52;94806.31;5014126;28;20301;-61
2022/09/09 06:11:34;;;;;;;12.70;7.60;;;;;;;19.53;88.87;94805.97;5012613;28;20661;-60
2022/09/09 06:14:00;;;;;;;16.25;8.10;;;;;;;19.60;88.40;94813.75;5013921;28;20209;-61
2022/09/09 06:16:27;;;;;;;10.98;7.53;;;;;;;19.57;87.97;94824.47;5014012;28;20676;-63
2022/09/09 06:18:54;;;;;;;15.60;8.23;;;;;;;19.45;89.09;94790.59;5012695;28;20218;-62
2022/09/09 06:21:23;;;;;;;13.40;7.72;;;;;;;19.54;88.43;94797.25;5013761;28;20202;-62
2022/09/09 06:23:50;;;;;;;12.80;8.00;;;;;;;19.59;87.75;94801.88;5013935;28;20649;-60
2022/09/09 06:26:19;;;;;;;11.82;7.70;;;;;;;19.62;87.78;94806.66;5013686;28;20683;-60
2022/09/09 06:28:47;;;;;;;18.23;8.85;;;;;;;19.59;87.11;94812.19;5013831;28;20219;-60
2022/09/09 06:31:17;;;;;;;13.73;8.45;;;;;;;19.63;87.15;94816.81;5013973;28;20194;-59
2022/09/09 06:33:44;;;;;;;11.57;8.30;;;;;;;19.68;86.40;94822.19;5012552;28;20210;-62
2022/09/09 06:36:30;;;;;;;8.40;7.53;;;;;;;19.83;86.26;94825.56;5012312;28;20203;-62
2022/09/09 06:38:57;;;;;;;11.18;7.80;;;;;;;19.93;86.21;94805.44;5013673;28;20572;-60
2022/09/09 06:41:26;;;;;;;10.63;7.05;;;;;;;19.95;85.18;94820.72;5012360;28;20214;-60
2022/09/09 06:43:55;;;;;;;11.63;7.47;;;;;;;19.94;85.42;94819.91;5014074;28;20677;-62
2022/09/09 06:46:28;;;;;;;13.40;7.35;;;;;;;20.10;84.33;94835.16;5013294;28;20205;-61
2022/09/09 06:48:58;;;;;;;10.05;7.03;;;;;;;20.32;83.46;94845.56;5013682;28;20210;-61
2022/09/09 06:51:28;;;;;;;12.95;8.40;;;;;;;20.52;83.11;94843.94;5014358;28;20218;-61
2022/09/09 06:53:56;;;;;;;9.05;6.95;;;;;;;20.38;81.15;94873.22;5012040;28;20206;-62
2022/09/09 06:56:27;;;;;;;10.18;6.75;;;;;;;20.35;80.30;94891.66;5012238;28;20203;-63
2022/09/09 06:58:54;;;;;;;11.80;7.00;;;;;;;20.45;79.26;94912.81;5011847;28;20561;-62
2022/09/09 07:01:41;;;;;;;13.05;7.10;;;;;;;20.51;78.42;94920.66;5014421;28;20191;-62
2022/09/09 07:04:08;;;;;;;10.50;6.85;;;;;;;20.75;77.72;94930.63;4979768;28;20226;-62
2022/09/09 07:06:40;;;;;;;10.48;6.15;;;;;;;20.87;77.51;94923.97;5013102;28;20225;-63
2022/09/09 07:09:10;;;;;;;6.80;5.82;;;;;;;20.86;76.10;94950.00;5013477;28;20277;-62
2022/09/09 07:12:01;;;;;;;10.90;7.65;;;;;;;21.19;75.42;94953.69;5011859;28;20722;-62
2022/09/09 07:14:27;;;;;;;9.23;5.93;;;;;;;21.40;73.13;94984.69;5010189;28;20771;-62
2022/09/09 07:16:52;;;;;;;8.80;5.93;;;;;;;21.23;74.42;94947.16;5011793;28;20222;-62
2022/09/09 07:19:18;;;;;;;7.30;5.72;;;;;;;21.10;72.83;94969.53;5013120;28;20252;-63
2022/09/09 07:21:44;;;;;;;12.27;6.30;;;;;;;21.18;73.57;94962.44;5012976;28;20187;-66
2022/09/09 07:24:10;;;;;;;12.18;5.95;;;;;;;21.23;72.13;94975.59;5012815;28;20269;-61
2022/09/09 07:26:37;;;;;;;11.90;5.68;;;;;;;21.39;73.12;94959.81;5013085;28;20210;-59
2022/09/09 07:29:03;;;;;;;8.65;6.05;;;;;;;21.66;71.44;94976.31;5012487;28;20217;-59
2022/09/09 07:31:36;;;;;;;20.15;6.85;;;;;;;21.84;70.90;94979.25;5012677;28;20183;-61
2022/09/09 07:34:03;;;;;;;12.35;6.38;;;;;;;21.90;69.15;94996.59;5013243;28;20235;-64
2022/09/09 07:36:30;;;;;;;9.63;6.05;;;;;;;22.20;69.99;94979.06;5012682;28;20202;-62
2022/09/09 07:38:58;;;;;;;12.93;6.43;;;;;;;22.29;70.19;94941.59;5012674;28;20708;-62
2022/09/09 07:41:27;;;;;;;7.45;5.65;;;;;;;22.39;69.94;94955.00;5012578;28;20332;-61
2022/09/09 07:43:56;;;;;;;5.57;4.97;;;;;;;22.56;68.39;94995.91;5012770;28;20203;-62
2022/09/09 07:46:25;;;;;;;10.20;5.32;;;;;;;22.69;68.54;94994.38;5012717;28;20203;-63
2022/09/09 07:48:56;;;;;;;7.05;6.07;;;;;;;22.98;67.10;95018.22;5012675;28;20700;-62
2022/09/09 07:51:27;;;;;;;9.82;5.32;;;;;;;23.08;64.84;95057.53;5012537;28;20232;-62
2022/09/09 07:53:59;;;;;;;9.63;5.57;;;;;;;23.28;64.26;95065.34;5010973;28;20202;-64
2022/09/09 07:56:26;;;;;;;11.23;6.30;;;;;;;23.38;63.17;95065.78;5012378;28;20280;-63
2022/09/09 07:58:55;;;;;;;14.73;5.22;;;;;;;23.53;63.19;95058.63;5011329;28;20230;-62
2022/09/09 08:01:20;;;;;;;8.35;5.30;;;;;;;23.72;62.49;95064.81;5011070;28;20245;-63
2022/09/09 08:03:52;;;;;;;7.88;4.93;;;;;;;23.96;61.81;95062.41;5012415;28;20234;-63
2022/09/09 08:06:17;;;;;;;7.53;5.18;;;;;;;23.89;60.87;95076.41;5012479;28;20284;-63
2022/09/09 08:08:43;;;;;;;5.53;4.35;;;;;;;23.82;61.50;95060.00;5010866;28;20640;-60
2022/09/09 08:11:08;;;;;;;8.80;4.80;;;;;;;23.45;61.52;95060.63;5010938;28;20230;-62
2022/09/09 08:13:38;;;;;;;6.35;4.50;;;;;;;23.28;61.59;95042.00;5011880;28;20285;-62
2022/09/09 08:16:09;;;;;;;7.50;4.60;;;;;;;23.00;62.22;95029.19;5012023;28;20191;-63
2022/09/09 08:18:35;;;;;;;5.15;4.60;;;;;;;23.05;63.05;95006.03;5010745;28;20214;-63
2022/09/09 08:21:11;;;;;;;10.35;5.05;;;;;;;23.44;62.10;95014.88;5011875;28;20194;-63
2022/09/09 08:23:39;;;;;;;8.35;5.10;;;;;;;23.59;62.26;95018.09;5010464;28;20696;-63
2022/09/09 08:26:06;;;;;;;8.75;5.00;;;;;;;23.96;61.39;95030.41;5011744;28;20218;-63
2022/09/09 08:28:32;;;;;;;6.35;5.03;;;;;;;24.26;61.46;95031.56;5011533;28;20219;-62
2022/09/09 08:31:06;;;;;;;9.85;4.47;;;;;;;24.34;60.95;95049.56;5011904;28;20190;-61
2022/09/09 08:33:33;;;;;;;6.82;5.00;;;;;;;24.37;59.29;95079.53;5011698;28;20218;-61
2022/09/09 08:35:58;;;;;;;11.07;4.82;;;;;;;24.23;58.36;95086.56;5011732;28;20203;-62
2022/09/09 08:38:24;;;;;;;7.50;4.78;;;;;;;24.09;59.17;95065.03;5011974;28;20277;-62
2022/09/09 08:40:53;;;;;;;6.78;4.60;;;;;;;24.28;59.00;95068.56;5011908;28;20191;-62
2022/09/09 08:43:22;;;;;;;6.57;4.63;;;;;;;24.28;60.20;95045.16;5010289;28;20249;-63
2022/09/09 08:46:00;;;;;;;9.10;5.03;;;;;;;24.23;60.75;95020.81;5011639;28;20186;-62
2022/09/09 08:48:47;;;;;;;8.48;5.10;;;;;;;24.20;61.41;94996.00;5011783;28;20619;-63
2022/09/09 08:51:13;;;;;;;17.88;5.35;;;;;;;24.46;62.42;94982.13;5011661;28;20554;-62
2022/09/09 08:53:46;;;;;;;10.13;6.38;;;;;;;24.69;62.75;94967.63;5011401;28;20231;-63
2022/09/09 08:56:21;;;;;;;7.63;5.35;;;;;;;24.88;62.65;94971.16;5011813;28;20197;-61
2022/09/09 08:58:57;;;;;;;14.25;6.05;;;;;;;24.96;61.04;95005.53;5011705;28;20726;-63
2022/09/09 09:01:40;;;;;;;7.07;5.30;;;;;;;24.87;60.17;95030.19;5011658;28;20204;-62
2022/09/09 09:04:20;;;;;;;12.30;5.50;;;;;;;24.90;58.77;95054.97;5010865;28;20623;-63
2022/09/09 09:06:45;;;;;;;6.70;4.82;;;;;;;25.12;59.08;95050.25;5010680;28;20194;-61
2022/09/09 09:09:23;;;;;;;8.98;5.57;;;;;;;25.58;58.84;95050.78;5011478;28;20700;-63
2022/09/09 09:12:12;;;;;;;9.10;4.90;;;;;;;25.90;57.10;95099.22;5011855;28;20281;-64
2022/09/09 09:14:43;;;;;;;7.78;5.22;;;;;;;25.96;57.07;95080.13;5013459;28;20214;-63
2022/09/09 09:17:19;;;;;;;7.93;5.18;;;;;;;26.06;57.91;95056.97;5013947;28;20202;-61
2022/09/09 09:19:46;;;;;;;8.95;4.35;;;;;;;26.69;54.68;95145.44;5011245;28;20203;-62
2022/09/09 09:22:17;;;;;;;20.27;5.43;;;;;;;26.66;52.72;95180.63;5011612;28;20193;-62
2022/09/09 09:24:53;;;;;;;7.55;4.80;;;;;;;26.52;52.55;95176.53;5011045;28;20235;-62
2022/09/09 09:27:53;;;;;;;9.48;5.13;;;;;;;26.27;52.66;95147.88;5012056;28;20273;-62
2022/09/09 09:30:22;;;;;;;9.27;4.82;;;;;;;25.99;54.05;95097.16;5010768;28;20740;-62
2022/09/09 09:32:55;;;;;;;7.57;5.10;;;;;;;25.81;54.01;95116.13;5011097;28;20202;-63
2022/09/09 09:35:21;;;;;;;5.97;4.82;;;;;;;25.57;54.57;95099.44;5011276;28;20501;-61
2022/09/09 09:37:48;;;;;;;7.53;5.00;;;;;;;25.62;54.18;95104.03;5011022;28;20290;-60
2022/09/09 09:40:18;;;;;;;7.90;4.65;;;;;;;25.71;55.11;95056.66;5010689;28;20206;-60
2022/09/09 09:43:08;;;;;;;7.68;5.15;;;;;;;26.02;55.24;95065.47;5009694;28;21104;-60
2022/09/09 09:45:41;;;;;;;9.88;5.38;;;;;;;26.25;54.73;95073.47;5010879;28;20301;-60
2022/09/09 09:48:10;;;;;;;7.45;4.75;;;;;;;26.86;53.05;95108.16;5009664;28;20669;-63
2022/09/09 09:50:50;;;;;;;9.18;5.45;;;;;;;27.21;51.94;95134.44;5010787;28;20214;-62
2022/09/09 09:53:26;;;;;;;10.55;5.03;;;;;;;27.21;50.88;95156.13;5010986;28;20269;-61
2022/09/09 09:56:02;;;;;;;11.38;5.15;;;;;;;26.92;53.29;95077.78;5010951;28;20198;-62
2022/09/09 09:58:34;;;;;;;10.88;6.78;;;;;;;26.83;53.73;95058.19;5010661;28;20707;-62
2022/09/09 10:01:00;;;;;;;8.20;5.28;;;;;;;26.91;53.46;95063.91;5011019;28;20632;-62
2022/09/09 10:03:29;;;;;;;7.93;4.82;;;;;;;26.95;53.28;95064.25;5009328;28;20194;-62
2022/09/09 10:05:56;;;;;;;9.07;5.25;;;;;;;26.90;54.69;95019.78;5009472;28;20672;-61
2022/09/09 10:08:26;;;;;;;10.20;5.53;;;;;;;27.12;55.83;94999.97;5010634;28;20187;-63
2022/09/09 10:11:14;;;;;;;9.40;5.00;;;;;;;27.25;53.81;95055.41;5010713;28;20225;-61
2022/09/09 10:13:49;;;;;;;9.40;5.45;;;;;;;27.23;54.47;95041.00;5010610;28;20645;-61
2022/09/09 10:16:17;;;;;;;12.75;5.70;;;;;;;27.10;55.67;95013.28;5013091;28;20202;-60
2022/09/09 10:19:06;;;;;;;9.43;5.20;;;;;;;26.95;54.28;95051.22;5014087;28;20256;-61
2022/09/09 10:21:34;;;;;;;9.50;4.85;;;;;;;26.46;55.20;95015.69;5014191;28;20187;-62
2022/09/09 10:24:18;;;;;;;13.30;5.55;;;;;;;26.12;54.69;95037.13;5013727;28;20214;-61
2022/09/09 10:27:05;;;;;;;9.13;4.95;;;;;;;25.90;56.23;94996.81;5013859;28;20190;-62
2022/09/09 10:29:30;;;;;;;14.30;6.18;;;;;;;25.72;56.06;94992.34;5013754;28;20210;-62
2022/09/09 10:32:34;;;;;;;8.38;5.40;;;;;;;25.68;57.03;94980.75;5014257;28;20194;-62
2022/09/09 10:35:17;;;;;;;10.77;5.25;;;;;;;25.63;57.38;94959.78;5013740;28;20281;-60
2022/09/09 10:38:01;;;;;;;9.20;5.63;;;;;;;25.88;57.18;94970.94;5013628;28;20230;-60
2022/09/09 10:40:38;;;;;;;12.95;5.05;;;;;;;25.65;56.60;94979.38;5013789;28;20280;-62
2022/09/09 10:43:44;;;;;;;11.40;5.88;;;;;;;25.58;57.75;94941.38;5013586;28;20194;-62
2022/09/09 10:46:17;;;;;;;6.05;5.13;;;;;;;25.48;58.87;94941.06;5013256;28;20257;-62
2022/09/09 10:48:51;;;;;;;13.73;5.88;;;;;;;25.44;58.10;94950.31;5013396;28;20222;-63
2022/09/09 10:51:24;;;;;;;9.35;5.80;;;;;;;25.24;58.40;94947.88;5012220;28;20209;-62
2022/09/09 10:54:08;;;;;;;11.55;5.43;;;;;;;25.30;57.21;94972.25;5013273;28;20207;-63
2022/09/09 10:56:35;;;;;;;7.75;5.38;;;;;;;25.22;58.30;94942.06;5013737;28;20194;-62
2022/09/09 10:59:10;;;;;;;5.72;5.13;;;;;;;25.19;59.04;94924.25;5013319;28;20207;-61
2022/09/09 11:01:49;;;;;;;8.02;5.88;;;;;;;25.27;60.26;94889.38;5012259;28;20179;-61
2022/09/09 11:04:25;;;;;;;10.13;5.20;;;;;;;25.27;60.55;94876.38;5013256;28;20207;-60
2022/09/09 11:06:55;;;;;;;13.82;5.88;;;;;;;25.11;59.78;94910.75;5013482;28;20190;-62
2022/09/09 11:09:31;;;;;;;11.20;6.15;;;;;;;25.12;59.19;94927.94;5012959;28;20219;-63
2022/09/09 11:12:01;;;;;;;11.77;6.28;;;;;;;24.94;60.36;94894.84;5011873;28;20190;-62
2022/09/09 11:14:37;;;;;;;10.73;6.22;;;;;;;24.86;60.06;94901.13;5013213;28;20262;-63
2022/09/09 11:17:12;;;;;;;9.27;5.78;;;;;;;24.81;61.16;94877.53;5013712;28;20248;-62
2022/09/09 11:19:40;;;;;;;9.60;6.18;;;;;;;24.79;60.84;94891.75;5013144;28;20210;-60
2022/09/09 11:22:18;;;;;;;9.38;5.95;;;;;;;24.71;60.92;94884.16;5013274;28;20226;-62
2022/09/09 11:25:10;;;;;;;14.40;6.13;;;;;;;24.74;60.50;94884.59;5012975;28;20210;-62
2022/09/09 11:28:46;;;;;;;8.20;6.32;;;;;;;25.11;59.84;94895.13;5037675;22;20305;-62
2022/09/09 11:31:36;;;;;;;6.65;5.82;;;;;;;25.23;60.90;94864.78;4919779;28;20256;-63
2022/09/09 11:34:18;;;;;;;8.48;6.18;;;;;;;25.29;61.22;94863.94;5012726;28;20696;-62
2022/09/09 11:37:22;;;;;;;7.80;5.85;;;;;;;25.42;59.85;94888.06;5013063;28;20700;-62
2022/09/09 11:39:48;;;;;;;10.63;6.20;;;;;;;25.29;61.08;94832.69;5010252;28;20219;-63
2022/09/09 11:42:13;;;;;;;10.32;6.50;;;;;;;25.21;62.09;94822.56;5012689;28;20597;-63
2022/09/09 11:44:39;;;;;;;11.60;6.28;;;;;;;25.21;62.13;94814.75;4995108;28;20207;-63
2022/09/09 11:47:20;;;;;;;8.13;5.88;;;;;;;25.34;61.04;94840.63;5012859;28;20199;-63
2022/09/09 11:49:45;;;;;;;10.43;6.13;;;;;;;25.43;61.07;94824.53;5012347;28;20215;-63
2022/09/09 11:52:26;;;;;;;14.32;6.47;;;;;;;25.64;60.60;94831.13;5012462;28;20190;-62